sensor_id;sensor_type;location;lat;lon;timestamp;temperature;humidity
324;DHT22;149;51.094;17.002;2022-09-09T00:00:46;16.60;99.90
324;DHT22;149;51.094;17.002;2022-09-09T00:03:21;16.60;99.90
324;DHT22;149;51.094;17.002;2022-09-09T00:06:03;16.40;99.90
324;DHT22;149;51.094;17.002;2022-09-09T00:14:51;16.10;99.90
324;DHT22;149;51.094;17.002;2022-09-09T00:17:39;16.00;99.90
324;DHT22;149;51.094;17.002;2022-09-09T00:20:25;15.70;99.90
324;DHT22;149;51.094;17.002;2022-09-09T00:23:01;15.90;99.90
324;DHT22;149;51.094;17.002;2022-09-09T00:25:39;16.00;99.90
324;DHT22;149;51.094;17.002;2022-09-09T00:28:20;16.00;99.90
324;DHT22;149;51.094;17.002;2022-09-09T00:30:48;16.00;99.90
324;DHT22;149;51.094;17.002;2022-09-09T00:33:22;16.10;99.90
324;DHT22;149;51.094;17.002;2022-09-09T00:36:00;15.80;99.90
324;DHT22;149;51.094;17.002;2022-09-09T00:38:35;15.90;99.90
324;DHT22;149;51.094;17.002;2022-09-09T00:41:22;15.90;99.90
324;DHT22;149;51.094;17.002;2022-09-09T00:44:02;15.80;99.90
324;DHT22;149;51.094;17.002;2022-09-09T00:47:09;15.70;99.90
324;DHT22;149;51.094;17.002;2022-09-09T00:52:55;15.40;99.90
324;DHT22;149;51.094;17.002;2022-09-09T00:58:46;15.60;99.90
324;DHT22;149;51.094;17.002;2022-09-09T01:01:17;15.80;99.90
324;DHT22;149;51.094;17.002;2022-09-09T01:03:52;15.80;99.90
324;DHT22;149;51.094;17.002;2022-09-09T01:06:31;15.90;99.90
324;DHT22;149;51.094;17.002;2022-09-09T01:11:57;15.90;99.90
324;DHT22;149;51.094;17.002;2022-09-09T01:14:41;15.60;99.90
324;DHT22;149;51.094;17.002;2022-09-09T01:17:21;15.50;99.90
324;DHT22;149;51.094;17.002;2022-09-09T01:19:58;15.50;99.90
324;DHT22;149;51.094;17.002;2022-09-09T01:25:28;15.60;99.90
324;DHT22;149;51.094;17.002;2022-09-09T01:27:59;15.60;99.90
324;DHT22;149;51.094;17.002;2022-09-09T01:30:28;15.60;99.90
324;DHT22;149;51.094;17.002;2022-09-09T01:32:57;15.60;99.90
324;DHT22;149;51.094;17.002;2022-09-09T01:38:48;15.60;99.90
324;DHT22;149;51.094;17.002;2022-09-09T01:41:15;15.50;99.90
324;DHT22;149;51.094;17.002;2022-09-09T01:43:42;15.50;99.90
324;DHT22;149;51.094;17.002;2022-09-09T01:46:10;15.50;99.90
324;DHT22;149;51.094;17.002;2022-09-09T01:48:39;15.40;99.90
324;DHT22;149;51.094;17.002;2022-09-09T01:51:08;15.40;99.90
324;DHT22;149;51.094;17.002;2022-09-09T01:53:38;15.40;99.90
324;DHT22;149;51.094;17.002;2022-09-09T01:56:36;15.40;99.90
324;DHT22;149;51.094;17.002;2022-09-09T02:04:47;15.40;99.90
324;DHT22;149;51.094;17.002;2022-09-09T02:07:25;15.30;99.90
324;DHT22;149;51.094;17.002;2022-09-09T02:10:05;15.20;99.90
324;DHT22;149;51.094;17.002;2022-09-09T02:12:36;15.20;99.90
324;DHT22;149;51.094;17.002;2022-09-09T02:15:15;15.30;99.90
324;DHT22;149;51.094;17.002;2022-09-09T02:17:45;15.10;99.90
324;DHT22;149;51.094;17.002;2022-09-09T02:20:14;15.10;99.90
324;DHT22;149;51.094;17.002;2022-09-09T02:22:44;15.20;99.90
324;DHT22;149;51.094;17.002;2022-09-09T02:25:19;15.20;99.90
324;DHT22;149;51.094;17.002;2022-09-09T02:27:47;15.30;99.90
324;DHT22;149;51.094;17.002;2022-09-09T02:30:19;15.30;99.90
324;DHT22;149;51.094;17.002;2022-09-09T02:32:48;15.30;99.90
324;DHT22;149;51.094;17.002;2022-09-09T02:35:21;15.30;99.90
324;DHT22;149;51.094;17.002;2022-09-09T02:37:53;15.30;99.90
324;DHT22;149;51.094;17.002;2022-09-09T02:40:21;15.20;99.90
324;DHT22;149;51.094;17.002;2022-09-09T02:42:49;15.20;99.90
324;DHT22;149;51.094;17.002;2022-09-09T02:45:23;15.20;99.90
324;DHT22;149;51.094;17.002;2022-09-09T02:48:12;15.20;99.90
324;DHT22;149;51.094;17.002;2022-09-09T02:53:18;15.10;99.90
324;DHT22;149;51.094;17.002;2022-09-09T02:55:52;15.20;99.90
324;DHT22;149;51.094;17.002;2022-09-09T02:58:22;15.20;99.90
324;DHT22;149;51.094;17.002;2022-09-09T03:00:51;15.20;99.90
324;DHT22;149;51.094;17.002;2022-09-09T03:03:19;15.20;99.90
324;DHT22;149;51.094;17.002;2022-09-09T03:05:47;15.10;99.90
324;DHT22;149;51.094;17.002;2022-09-09T03:08:17;15.20;99.90
324;DHT22;149;51.094;17.002;2022-09-09T03:10:44;15.10;99.90
324;DHT22;149;51.094;17.002;2022-09-09T03:13:10;15.10;99.90
324;DHT22;149;51.094;17.002;2022-09-09T03:15:39;15.10;99.90
324;DHT22;149;51.094;17.002;2022-09-09T03:18:06;15.10;99.90
324;DHT22;149;51.094;17.002;2022-09-09T03:20:34;15.00;99.90
324;DHT22;149;51.094;17.002;2022-09-09T03:23:03;15.10;99.90
324;DHT22;149;51.094;17.002;2022-09-09T03:25:30;15.00;99.90
324;DHT22;149;51.094;17.002;2022-09-09T03:27:57;15.00;99.90
324;DHT22;149;51.094;17.002;2022-09-09T03:30:26;15.00;99.90
324;DHT22;149;51.094;17.002;2022-09-09T03:32:53;14.90;99.90
324;DHT22;149;51.094;17.002;2022-09-09T03:35:21;14.70;99.90
324;DHT22;149;51.094;17.002;2022-09-09T03:37:48;14.80;99.90
324;DHT22;149;51.094;17.002;2022-09-09T03:40:15;14.80;99.90
324;DHT22;149;51.094;17.002;2022-09-09T03:42:42;14.80;99.90
324;DHT22;149;51.094;17.002;2022-09-09T03:45:10;14.90;99.90
324;DHT22;149;51.094;17.002;2022-09-09T03:47:37;14.70;99.90
324;DHT22;149;51.094;17.002;2022-09-09T03:50:06;14.80;99.90
324;DHT22;149;51.094;17.002;2022-09-09T03:52:37;14.90;99.90
324;DHT22;149;51.094;17.002;2022-09-09T03:55:05;14.70;99.90
324;DHT22;149;51.094;17.002;2022-09-09T03:57:35;14.80;99.90
324;DHT22;149;51.094;17.002;2022-09-09T04:00:06;14.80;99.90
324;DHT22;149;51.094;17.002;2022-09-09T04:02:34;14.90;99.90
324;DHT22;149;51.094;17.002;2022-09-09T04:05:01;14.90;99.90
324;DHT22;149;51.094;17.002;2022-09-09T04:07:28;14.80;99.90
324;DHT22;149;51.094;17.002;2022-09-09T04:09:55;14.80;99.90
324;DHT22;149;51.094;17.002;2022-09-09T04:12:22;14.80;99.90
324;DHT22;149;51.094;17.002;2022-09-09T04:14:49;14.80;99.90
324;DHT22;149;51.094;17.002;2022-09-09T04:17:16;14.80;99.90
324;DHT22;149;51.094;17.002;2022-09-09T04:19:44;14.80;99.90
324;DHT22;149;51.094;17.002;2022-09-09T04:22:10;14.80;99.90
324;DHT22;149;51.094;17.002;2022-09-09T04:24:38;14.70;99.90
324;DHT22;149;51.094;17.002;2022-09-09T04:27:04;14.80;99.90
324;DHT22;149;51.094;17.002;2022-09-09T04:29:32;14.70;99.90
324;DHT22;149;51.094;17.002;2022-09-09T04:32:00;14.60;99.90
324;DHT22;149;51.094;17.002;2022-09-09T04:34:27;14.60;99.90
324;DHT22;149;51.094;17.002;2022-09-09T04:36:54;14.50;99.90
324;DHT22;149;51.094;17.002;2022-09-09T04:39:22;14.50;99.90
324;DHT22;149;51.094;17.002;2022-09-09T04:41:49;14.70;99.90
324;DHT22;149;51.094;17.002;2022-09-09T04:44:16;14.70;99.90
324;DHT22;149;51.094;17.002;2022-09-09T04:46:45;14.50;99.90
324;DHT22;149;51.094;17.002;2022-09-09T04:49:12;14.50;99.90
324;DHT22;149;51.094;17.002;2022-09-09T04:51:40;14.70;99.90
324;DHT22;149;51.094;17.002;2022-09-09T04:54:08;14.80;99.90
324;DHT22;149;51.094;17.002;2022-09-09T04:56:34;14.80;99.90
324;DHT22;149;51.094;17.002;2022-09-09T04:59:03;14.90;99.90
324;DHT22;149;51.094;17.002;2022-09-09T05:01:29;15.10;99.90
324;DHT22;149;51.094;17.002;2022-09-09T05:03:56;15.10;99.90
324;DHT22;149;51.094;17.002;2022-09-09T05:06:24;15.30;99.90
324;DHT22;149;51.094;17.002;2022-09-09T05:08:51;15.10;99.90
324;DHT22;149;51.094;17.002;2022-09-09T05:11:26;15.20;99.90
324;DHT22;149;51.094;17.002;2022-09-09T05:13:55;15.10;99.90
324;DHT22;149;51.094;17.002;2022-09-09T05:16:23;15.30;99.90
324;DHT22;149;51.094;17.002;2022-09-09T05:18:50;15.30;99.90
324;DHT22;149;51.094;17.002;2022-09-09T05:21:18;15.40;99.90
324;DHT22;149;51.094;17.002;2022-09-09T05:23:48;15.60;99.90
324;DHT22;149;51.094;17.002;2022-09-09T05:26:19;15.60;99.90
324;DHT22;149;51.094;17.002;2022-09-09T05:28:46;15.50;99.90
324;DHT22;149;51.094;17.002;2022-09-09T05:31:15;15.40;99.90
324;DHT22;149;51.094;17.002;2022-09-09T05:33:45;15.40;99.90
324;DHT22;149;51.094;17.002;2022-09-09T05:36:15;15.50;99.90
324;DHT22;149;51.094;17.002;2022-09-09T05:38:43;15.60;99.90
324;DHT22;149;51.094;17.002;2022-09-09T05:41:11;15.70;99.90
324;DHT22;149;51.094;17.002;2022-09-09T05:43:38;15.80;99.90
324;DHT22;149;51.094;17.002;2022-09-09T05:46:08;16.00;99.90
324;DHT22;149;51.094;17.002;2022-09-09T05:48:37;16.20;99.90
324;DHT22;149;51.094;17.002;2022-09-09T05:51:07;16.40;99.90
324;DHT22;149;51.094;17.002;2022-09-09T05:53:35;16.60;99.90
324;DHT22;149;51.094;17.002;2022-09-09T05:56:07;16.80;99.90
324;DHT22;149;51.094;17.002;2022-09-09T05:58:37;16.90;99.90
324;DHT22;149;51.094;17.002;2022-09-09T06:01:09;17.00;99.90
324;DHT22;149;51.094;17.002;2022-09-09T06:03:38;17.00;99.90
324;DHT22;149;51.094;17.002;2022-09-09T06:06:17;17.30;99.90
324;DHT22;149;51.094;17.002;2022-09-09T06:08:52;17.10;99.90
324;DHT22;149;51.094;17.002;2022-09-09T06:11:22;17.20;99.90
324;DHT22;149;51.094;17.002;2022-09-09T06:13:50;17.50;99.90
324;DHT22;149;51.094;17.002;2022-09-09T06:16:25;17.80;99.90
324;DHT22;149;51.094;17.002;2022-09-09T06:18:54;18.00;99.90
324;DHT22;149;51.094;17.002;2022-09-09T06:21:26;18.30;99.90
324;DHT22;149;51.094;17.002;2022-09-09T06:23:54;18.80;99.90
324;DHT22;149;51.094;17.002;2022-09-09T06:26:31;19.10;99.90
324;DHT22;149;51.094;17.002;2022-09-09T06:28:59;19.50;99.90
324;DHT22;149;51.094;17.002;2022-09-09T06:31:28;19.90;99.90
324;DHT22;149;51.094;17.002;2022-09-09T06:33:58;20.40;99.90
324;DHT22;149;51.094;17.002;2022-09-09T06:36:27;21.50;99.90
324;DHT22;149;51.094;17.002;2022-09-09T06:38:55;22.70;99.90
324;DHT22;149;51.094;17.002;2022-09-09T06:41:25;23.90;99.90
324;DHT22;149;51.094;17.002;2022-09-09T06:43:53;25.00;99.90
324;DHT22;149;51.094;17.002;2022-09-09T06:46:27;26.30;99.90
324;DHT22;149;51.094;17.002;2022-09-09T06:48:55;27.40;99.90
324;DHT22;149;51.094;17.002;2022-09-09T06:51:35;27.80;99.90
324;DHT22;149;51.094;17.002;2022-09-09T06:54:03;28.40;99.90
324;DHT22;149;51.094;17.002;2022-09-09T06:56:38;29.30;99.90
324;DHT22;149;51.094;17.002;2022-09-09T06:59:08;31.00;99.90
324;DHT22;149;51.094;17.002;2022-09-09T07:01:37;33.50;99.90
324;DHT22;149;51.094;17.002;2022-09-09T07:04:07;35.40;96.30
324;DHT22;149;51.094;17.002;2022-09-09T07:06:38;36.00;91.20
324;DHT22;149;51.094;17.002;2022-09-09T07:09:07;35.40;92.00
324;DHT22;149;51.094;17.002;2022-09-09T07:11:48;35.00;91.90
324;DHT22;149;51.094;17.002;2022-09-09T07:14:16;35.70;90.70
324;DHT22;149;51.094;17.002;2022-09-09T07:16:44;37.20;84.00
324;DHT22;149;51.094;17.002;2022-09-09T07:19:12;38.20;75.60
324;DHT22;149;51.094;17.002;2022-09-09T07:21:39;39.10;73.70
324;DHT22;149;51.094;17.002;2022-09-09T07:24:09;40.00;69.70
324;DHT22;149;51.094;17.002;2022-09-09T07:26:39;39.30;68.70
324;DHT22;149;51.094;17.002;2022-09-09T07:29:09;40.50;68.60
324;DHT22;149;51.094;17.002;2022-09-09T07:31:38;39.20;64.70
324;DHT22;149;51.094;17.002;2022-09-09T07:34:06;39.90;64.50
324;DHT22;149;51.094;17.002;2022-09-09T07:36:36;40.30;63.10
324;DHT22;149;51.094;17.002;2022-09-09T07:39:09;39.60;62.20
324;DHT22;149;51.094;17.002;2022-09-09T07:41:44;40.80;60.50
324;DHT22;149;51.094;17.002;2022-09-09T07:44:14;40.90;59.30
324;DHT22;149;51.094;17.002;2022-09-09T07:46:43;40.80;59.70
324;DHT22;149;51.094;17.002;2022-09-09T07:49:11;41.80;60.60
324;DHT22;149;51.094;17.002;2022-09-09T07:51:41;40.60;59.70
324;DHT22;149;51.094;17.002;2022-09-09T07:54:12;38.60;60.70
324;DHT22;149;51.094;17.002;2022-09-09T07:56:40;39.30;59.70
324;DHT22;149;51.094;17.002;2022-09-09T07:59:08;38.50;63.10
324;DHT22;149;51.094;17.002;2022-09-09T08:01:39;38.00;63.90
324;DHT22;149;51.094;17.002;2022-09-09T08:04:09;37.00;66.60
324;DHT22;149;51.094;17.002;2022-09-09T08:06:39;36.80;67.60
324;DHT22;149;51.094;17.002;2022-09-09T08:09:07;36.50;66.70
324;DHT22;149;51.094;17.002;2022-09-09T08:11:35;36.40;65.50
324;DHT22;149;51.094;17.002;2022-09-09T08:14:09;36.20;68.30
324;DHT22;149;51.094;17.002;2022-09-09T08:16:43;36.50;65.00
324;DHT22;149;51.094;17.002;2022-09-09T08:19:10;36.30;64.60
324;DHT22;149;51.094;17.002;2022-09-09T08:21:38;36.60;63.80
324;DHT22;149;51.094;17.002;2022-09-09T08:24:07;36.80;64.50
324;DHT22;149;51.094;17.002;2022-09-09T08:26:37;37.20;62.00
324;DHT22;149;51.094;17.002;2022-09-09T08:29:06;36.00;62.90
324;DHT22;149;51.094;17.002;2022-09-09T08:31:38;35.50;65.20
324;DHT22;149;51.094;17.002;2022-09-09T08:34:06;35.30;63.50
324;DHT22;149;51.094;17.002;2022-09-09T08:36:37;35.00;66.60
324;DHT22;149;51.094;17.002;2022-09-09T08:39:06;34.40;68.80
324;DHT22;149;51.094;17.002;2022-09-09T08:41:57;34.50;67.20
324;DHT22;149;51.094;17.002;2022-09-09T08:52:29;34.00;71.50
324;DHT22;149;51.094;17.002;2022-09-09T08:55:05;34.20;69.10
324;DHT22;149;51.094;17.002;2022-09-09T08:57:37;33.90;69.30
324;DHT22;149;51.094;17.002;2022-09-09T09:00:04;33.40;71.00
324;DHT22;149;51.094;17.002;2022-09-09T09:02:46;32.90;72.30
324;DHT22;149;51.094;17.002;2022-09-09T09:05:23;33.10;73.80
324;DHT22;149;51.094;17.002;2022-09-09T09:08:08;34.00;69.70
324;DHT22;149;51.094;17.002;2022-09-09T09:10:49;35.30;67.20
324;DHT22;149;51.094;17.002;2022-09-09T09:16:31;35.90;63.20
324;DHT22;149;51.094;17.002;2022-09-09T09:19:00;33.00;73.30
324;DHT22;149;51.094;17.002;2022-09-09T09:21:42;31.90;77.40
324;DHT22;149;51.094;17.002;2022-09-09T09:24:25;30.50;81.40
324;DHT22;149;51.094;17.002;2022-09-09T09:26:54;29.20;86.60
324;DHT22;149;51.094;17.002;2022-09-09T09:29:25;28.70;89.50
324;DHT22;149;51.094;17.002;2022-09-09T09:31:56;29.20;91.10
324;DHT22;149;51.094;17.002;2022-09-09T09:34:25;29.40;91.90
324;DHT22;149;51.094;17.002;2022-09-09T09:36:59;29.30;91.50
324;DHT22;149;51.094;17.002;2022-09-09T09:39:33;28.90;92.20
324;DHT22;149;51.094;17.002;2022-09-09T09:42:25;28.50;92.50
324;DHT22;149;51.094;17.002;2022-09-09T09:44:52;27.80;94.90
324;DHT22;149;51.094;17.002;2022-09-09T09:47:21;27.70;95.90
324;DHT22;149;51.094;17.002;2022-09-09T09:49:52;27.70;96.00
324;DHT22;149;51.094;17.002;2022-09-09T09:52:31;27.30;96.40
324;DHT22;149;51.094;17.002;2022-09-09T09:54:59;27.10;96.40
324;DHT22;149;51.094;17.002;2022-09-09T09:57:33;27.00;98.20
324;DHT22;149;51.094;17.002;2022-09-09T10:00:04;26.80;96.70
324;DHT22;149;51.094;17.002;2022-09-09T10:02:39;26.60;98.00
324;DHT22;149;51.094;17.002;2022-09-09T10:05:19;26.70;99.20
324;DHT22;149;51.094;17.002;2022-09-09T10:08:12;26.80;98.00
324;DHT22;149;51.094;17.002;2022-09-09T10:19:10;26.80;99.90
324;DHT22;149;51.094;17.002;2022-09-09T10:22:04;26.80;99.90
324;DHT22;149;51.094;17.002;2022-09-09T10:27:19;26.30;99.90
324;DHT22;149;51.094;17.002;2022-09-09T10:30:12;26.20;99.90
324;DHT22;149;51.094;17.002;2022-09-09T10:35:40;25.80;99.90
324;DHT22;149;51.094;17.002;2022-09-09T10:38:18;25.60;99.90
324;DHT22;149;51.094;17.002;2022-09-09T10:46:03;25.40;99.90
324;DHT22;149;51.094;17.002;2022-09-09T10:51:46;25.20;99.90
324;DHT22;149;51.094;17.002;2022-09-09T10:57:41;25.00;99.90
324;DHT22;149;51.094;17.002;2022-09-09T11:00:17;25.00;99.90
324;DHT22;149;51.094;17.002;2022-09-09T11:02:48;25.10;99.90
324;DHT22;149;51.094;17.002;2022-09-09T11:05:24;25.20;99.90
324;DHT22;149;51.094;17.002;2022-09-09T11:07:58;25.50;99.90
324;DHT22;149;51.094;17.002;2022-09-09T11:10:41;25.60;99.90
324;DHT22;149;51.094;17.002;2022-09-09T11:16:17;25.50;99.90
324;DHT22;149;51.094;17.002;2022-09-09T11:18:50;25.50;99.90
324;DHT22;149;51.094;17.002;2022-09-09T11:21:35;25.50;99.90
324;DHT22;149;51.094;17.002;2022-09-09T11:24:12;25.70;99.90
324;DHT22;149;51.094;17.002;2022-09-09T11:30:16;25.60;99.90
324;DHT22;149;51.094;17.002;2022-09-09T11:33:31;25.60;99.90
324;DHT22;149;51.094;17.002;2022-09-09T11:38:46;25.40;99.90
324;DHT22;149;51.094;17.002;2022-09-09T11:41:15;25.20;99.90
324;DHT22;149;51.094;17.002;2022-09-09T11:43:49;25.40;99.90
324;DHT22;149;51.094;17.002;2022-09-09T11:46:31;25.90;99.90
324;DHT22;149;51.094;17.002;2022-09-09T11:49:02;26.30;99.90
324;DHT22;149;51.094;17.002;2022-09-09T11:51:31;26.50;99.90
324;DHT22;149;51.094;17.002;2022-09-09T11:54:29;26.80;99.90
324;DHT22;149;51.094;17.002;2022-09-09T11:56:50;26.50;99.90
324;DHT22;149;51.094;17.002;2022-09-09T11:59:25;26.20;99.90
324;DHT22;149;51.094;17.002;2022-09-09T12:02:13;26.00;99.90
324;DHT22;149;51.094;17.002;2022-09-09T12:04:48;26.00;99.90
324;DHT22;149;51.094;17.002;2022-09-09T12:07:31;26.00;99.90
324;DHT22;149;51.094;17.002;2022-09-09T12:12:37;25.20;99.90
324;DHT22;149;51.094;17.002;2022-09-09T12:15:23;25.40;99.90
324;DHT22;149;51.094;17.002;2022-09-09T12:17:56;25.70;99.90
324;DHT22;149;51.094;17.002;2022-09-09T12:20:37;26.00;99.90
324;DHT22;149;51.094;17.002;2022-09-09T12:23:30;25.90;99.90
324;DHT22;149;51.094;17.002;2022-09-09T12:31:26;27.60;99.90
324;DHT22;149;51.094;17.002;2022-09-09T12:34:10;27.60;99.90
324;DHT22;149;51.094;17.002;2022-09-09T12:36:39;27.60;99.90
324;DHT22;149;51.094;17.002;2022-09-09T12:39:44;26.60;99.90
324;DHT22;149;51.094;17.002;2022-09-09T12:42:20;26.00;99.90
324;DHT22;149;51.094;17.002;2022-09-09T12:45:00;25.90;99.90
324;DHT22;149;51.094;17.002;2022-09-09T12:47:39;25.90;99.90
324;DHT22;149;51.094;17.002;2022-09-09T12:50:17;26.10;99.90
324;DHT22;149;51.094;17.002;2022-09-09T12:52:47;26.60;99.90
324;DHT22;149;51.094;17.002;2022-09-09T12:55:36;26.60;99.90
324;DHT22;149;51.094;17.002;2022-09-09T12:58:05;26.10;99.90
324;DHT22;149;51.094;17.002;2022-09-09T13:00:33;26.00;99.90
324;DHT22;149;51.094;17.002;2022-09-09T13:03:14;25.90;99.90
324;DHT22;149;51.094;17.002;2022-09-09T13:05:42;26.30;99.90
324;DHT22;149;51.094;17.002;2022-09-09T13:08:12;26.30;99.90
324;DHT22;149;51.094;17.002;2022-09-09T13:10:50;26.20;99.90
324;DHT22;149;51.094;17.002;2022-09-09T13:13:41;26.20;99.90
324;DHT22;149;51.094;17.002;2022-09-09T13:16:20;26.40;99.90
324;DHT22;149;51.094;17.002;2022-09-09T13:18:49;26.50;99.90
324;DHT22;149;51.094;17.002;2022-09-09T13:21:17;26.40;99.90
324;DHT22;149;51.094;17.002;2022-09-09T13:23:50;26.60;99.90
324;DHT22;149;51.094;17.002;2022-09-09T13:26:26;26.80;99.90
324;DHT22;149;51.094;17.002;2022-09-09T13:28:54;26.70;99.90
324;DHT22;149;51.094;17.002;2022-09-09T13:31:24;26.60;99.90
324;DHT22;149;51.094;17.002;2022-09-09T13:33:54;26.60;99.90
324;DHT22;149;51.094;17.002;2022-09-09T13:36:29;26.50;99.90
324;DHT22;149;51.094;17.002;2022-09-09T13:38:59;26.30;99.90
324;DHT22;149;51.094;17.002;2022-09-09T13:41:35;26.10;99.90
324;DHT22;149;51.094;17.002;2022-09-09T13:44:03;26.00;99.90
324;DHT22;149;51.094;17.002;2022-09-09T13:46:38;25.90;99.90
324;DHT22;149;51.094;17.002;2022-09-09T13:51:42;26.10;99.90
324;DHT22;149;51.094;17.002;2022-09-09T13:54:15;26.30;99.90
324;DHT22;149;51.094;17.002;2022-09-09T13:56:42;26.40;99.90
324;DHT22;149;51.094;17.002;2022-09-09T13:59:15;26.40;99.70
324;DHT22;149;51.094;17.002;2022-09-09T14:01:42;26.20;99.90
324;DHT22;149;51.094;17.002;2022-09-09T14:04:10;26.10;99.90
324;DHT22;149;51.094;17.002;2022-09-09T14:06:38;26.10;99.90
324;DHT22;149;51.094;17.002;2022-09-09T14:09:16;25.90;99.90
324;DHT22;149;51.094;17.002;2022-09-09T14:11:44;26.00;99.90
324;DHT22;149;51.094;17.002;2022-09-09T14:14:12;25.90;99.90
324;DHT22;149;51.094;17.002;2022-09-09T14:16:42;25.90;99.90
324;DHT22;149;51.094;17.002;2022-09-09T14:19:10;25.80;99.90
324;DHT22;149;51.094;17.002;2022-09-09T14:21:38;25.60;99.50
324;DHT22;149;51.094;17.002;2022-09-09T14:24:05;25.90;99.70
324;DHT22;149;51.094;17.002;2022-09-09T14:26:33;26.00;98.70
324;DHT22;149;51.094;17.002;2022-09-09T14:29:00;26.00;99.50
324;DHT22;149;51.094;17.002;2022-09-09T14:31:28;26.00;99.20
324;DHT22;149;51.094;17.002;2022-09-09T14:34:00;25.70;99.90
324;DHT22;149;51.094;17.002;2022-09-09T14:36:27;25.60;99.90
324;DHT22;149;51.094;17.002;2022-09-09T14:38:55;25.60;99.90
324;DHT22;149;51.094;17.002;2022-09-09T14:41:23;25.70;99.90
324;DHT22;149;51.094;17.002;2022-09-09T14:43:52;25.70;99.90
324;DHT22;149;51.094;17.002;2022-09-09T14:46:20;25.60;99.90
324;DHT22;149;51.094;17.002;2022-09-09T14:48:47;25.40;99.90
324;DHT22;149;51.094;17.002;2022-09-09T14:51:23;25.30;99.90
324;DHT22;149;51.094;17.002;2022-09-09T14:53:52;25.40;99.90
324;DHT22;149;51.094;17.002;2022-09-09T14:56:23;25.20;99.90
324;DHT22;149;51.094;17.002;2022-09-09T14:58:53;24.90;99.90
324;DHT22;149;51.094;17.002;2022-09-09T15:01:25;24.60;99.90
324;DHT22;149;51.094;17.002;2022-09-09T15:04:00;24.60;99.90
324;DHT22;149;51.094;17.002;2022-09-09T15:06:30;24.70;99.90
324;DHT22;149;51.094;17.002;2022-09-09T15:09:01;24.80;99.90
324;DHT22;149;51.094;17.002;2022-09-09T15:11:32;24.70;99.90
324;DHT22;149;51.094;17.002;2022-09-09T15:14:00;24.60;99.90
324;DHT22;149;51.094;17.002;2022-09-09T15:16:33;24.60;99.90
324;DHT22;149;51.094;17.002;2022-09-09T15:19:03;24.70;99.90
324;DHT22;149;51.094;17.002;2022-09-09T15:21:32;24.70;99.90
324;DHT22;149;51.094;17.002;2022-09-09T15:24:01;24.50;99.90
324;DHT22;149;51.094;17.002;2022-09-09T15:26:28;24.50;99.90
324;DHT22;149;51.094;17.002;2022-09-09T15:28:56;24.40;99.90
324;DHT22;149;51.094;17.002;2022-09-09T15:31:28;24.40;99.90
324;DHT22;149;51.094;17.002;2022-09-09T15:33:58;24.30;99.90
324;DHT22;149;51.094;17.002;2022-09-09T15:36:39;24.30;99.90
324;DHT22;149;51.094;17.002;2022-09-09T15:39:09;24.30;99.90
324;DHT22;149;51.094;17.002;2022-09-09T15:41:39;24.10;99.90
324;DHT22;149;51.094;17.002;2022-09-09T15:44:09;24.00;99.90
324;DHT22;149;51.094;17.002;2022-09-09T15:46:49;24.10;99.90
324;DHT22;149;51.094;17.002;2022-09-09T15:49:17;24.00;99.90
324;DHT22;149;51.094;17.002;2022-09-09T15:51:47;24.10;99.90
324;DHT22;149;51.094;17.002;2022-09-09T15:54:16;23.90;99.90
324;DHT22;149;51.094;17.002;2022-09-09T15:56:46;23.60;99.90
324;DHT22;149;51.094;17.002;2022-09-09T15:59:14;23.60;99.90
324;DHT22;149;51.094;17.002;2022-09-09T16:01:44;23.50;99.90
324;DHT22;149;51.094;17.002;2022-09-09T16:04:11;23.30;99.90
324;DHT22;149;51.094;17.002;2022-09-09T16:06:39;23.20;99.90
324;DHT22;149;51.094;17.002;2022-09-09T16:09:11;23.30;99.90
324;DHT22;149;51.094;17.002;2022-09-09T16:11:39;23.10;99.90
324;DHT22;149;51.094;17.002;2022-09-09T16:14:08;22.80;99.90
324;DHT22;149;51.094;17.002;2022-09-09T16:16:35;22.80;99.90
324;DHT22;149;51.094;17.002;2022-09-09T16:19:07;22.80;99.90
324;DHT22;149;51.094;17.002;2022-09-09T16:21:38;22.70;99.90
324;DHT22;149;51.094;17.002;2022-09-09T16:24:08;22.60;99.90
324;DHT22;149;51.094;17.002;2022-09-09T16:26:36;22.70;99.90
324;DHT22;149;51.094;17.002;2022-09-09T16:29:06;22.60;99.90
324;DHT22;149;51.094;17.002;2022-09-09T16:31:33;22.30;99.90
324;DHT22;149;51.094;17.002;2022-09-09T16:34:04;22.40;99.90
324;DHT22;149;51.094;17.002;2022-09-09T16:36:33;22.40;99.90
324;DHT22;149;51.094;17.002;2022-09-09T16:39:06;22.30;99.90
324;DHT22;149;51.094;17.002;2022-09-09T16:41:33;22.30;99.90
324;DHT22;149;51.094;17.002;2022-09-09T16:44:05;22.20;99.90
324;DHT22;149;51.094;17.002;2022-09-09T16:46:37;22.20;99.90
324;DHT22;149;51.094;17.002;2022-09-09T16:49:10;22.20;99.90
324;DHT22;149;51.094;17.002;2022-09-09T16:51:49;22.10;99.90
324;DHT22;149;51.094;17.002;2022-09-09T16:54:20;22.00;99.90
324;DHT22;149;51.094;17.002;2022-09-09T16:56:48;21.60;99.90
324;DHT22;149;51.094;17.002;2022-09-09T16:59:17;21.50;99.90
324;DHT22;149;51.094;17.002;2022-09-09T17:01:47;21.60;99.90
324;DHT22;149;51.094;17.002;2022-09-09T17:04:19;21.70;99.90
324;DHT22;149;51.094;17.002;2022-09-09T17:06:49;21.60;99.90
324;DHT22;149;51.094;17.002;2022-09-09T17:09:17;21.50;99.90
324;DHT22;149;51.094;17.002;2022-09-09T17:11:44;21.50;99.90
324;DHT22;149;51.094;17.002;2022-09-09T17:14:15;21.30;99.90
324;DHT22;149;51.094;17.002;2022-09-09T17:16:43;21.40;99.90
324;DHT22;149;51.094;17.002;2022-09-09T17:19:11;21.50;99.90
324;DHT22;149;51.094;17.002;2022-09-09T17:21:40;21.50;99.90
324;DHT22;149;51.094;17.002;2022-09-09T17:24:29;21.40;99.90
324;DHT22;149;51.094;17.002;2022-09-09T17:26:57;21.30;99.90
324;DHT22;149;51.094;17.002;2022-09-09T17:29:24;21.20;99.90
324;DHT22;149;51.094;17.002;2022-09-09T17:31:53;21.20;99.90
324;DHT22;149;51.094;17.002;2022-09-09T17:34:21;21.10;99.90
324;DHT22;149;51.094;17.002;2022-09-09T17:36:49;21.00;99.90
324;DHT22;149;51.094;17.002;2022-09-09T17:39:16;21.10;99.90
324;DHT22;149;51.094;17.002;2022-09-09T17:41:43;20.90;99.90
324;DHT22;149;51.094;17.002;2022-09-09T17:44:11;20.90;99.90
324;DHT22;149;51.094;17.002;2022-09-09T17:46:42;20.90;99.90
324;DHT22;149;51.094;17.002;2022-09-09T17:49:13;21.00;99.90
324;DHT22;149;51.094;17.002;2022-09-09T17:51:41;20.90;99.90
324;DHT22;149;51.094;17.002;2022-09-09T17:54:11;20.90;99.90
324;DHT22;149;51.094;17.002;2022-09-09T17:56:40;20.80;99.90
324;DHT22;149;51.094;17.002;2022-09-09T17:59:10;20.70;99.90
324;DHT22;149;51.094;17.002;2022-09-09T18:01:43;20.60;99.90
324;DHT22;149;51.094;17.002;2022-09-09T18:04:12;20.60;99.90
324;DHT22;149;51.094;17.002;2022-09-09T18:06:43;20.50;99.90
324;DHT22;149;51.094;17.002;2022-09-09T18:09:14;20.50;99.90
324;DHT22;149;51.094;17.002;2022-09-09T18:11:45;20.50;99.90
324;DHT22;149;51.094;17.002;2022-09-09T18:14:31;20.50;99.90